MST,Max TemperatureF,Mean TemperatureF,Min TemperatureF,Max Dew PointF,MeanDew PointF,Min DewpointF,Max Humidity, Mean Humidity, Min Humidity, Max Sea Level PressureIn, Mean Sea Level PressureIn, Min Sea Level PressureIn, Max VisibilityMiles, Mean VisibilityMiles, Min VisibilityMiles, Max Wind SpeedMPH, Mean Wind SpeedMPH, Max Gust SpeedMPH,PrecipitationIn, CloudCover, Events, WindDirDegrees
2013-3-1,57,38,18,19,16,12,78,51,21,30.54,30.44,30.38,10,10,10,12,4,17,0.00,0,,56
2013-3-2,63,41,19,26,18,11,85,52,14,30.51,30.33,30.15,10,10,10,9,3,20,0.00,0,,135
2013-3-3,57,40,23,27,21,18,85,51,23,30.15,30.01,29.82,10,10,10,22,7,32,0.00,4,Rain,223
2013-3-4,52,39,25,27,21,16,78,50,25,30.16,29.94,29.80,10,10,10,12,8,20,0.00,3,,257
2013-3-5,57,38,19,22,18,15,85,52,19,30.25,30.14,30.05,10,10,10,21,4,25,0.00,0,,197
2013-3-6,57,39,21,26,18,9,85,47,16,30.09,29.97,29.85,10,10,10,22,7,34,0.00,0,,221
2013-3-7,57,38,19,20,16,9,85,47,15,29.97,29.90,29.84,10,10,10,25,8,36,0.00,0,,197
2013-3-8,42,34,26,32,28,20,96,84,50,29.89,29.76,29.64,10,6,0,21,9,37,0.15,8,Fog-Rain-Snow,198
2013-3-9,34,26,18,28,25,14,93,85,75,30.18,29.90,29.79,10,5,0,15,10,21,0.17,7,Fog-Snow,255
2013-3-10,46,30,15,22,18,11,85,62,29,30.30,30.25,30.18,10,10,10,12,5,,0.00,0,,51
2013-3-11,55,36,17,24,18,13,85,59,19,30.30,30.21,30.12,10,10,10,9,2,16,0.00,0,,1
2013-3-12,62,42,21,25,22,18,85,57,23,30.28,30.21,30.15,10,10,10,12,3,,0.00,0,,55
2013-3-13,64,44,23,26,22,17,85,52,16,30.37,30.29,30.24,10,10,10,10,3,,0.00,0,,57
2013-3-14,71,48,25,25,18,7,81,44,9,30.39,30.25,30.16,10,10,10,10,5,18,0.00,0,,78
2013-3-15,71,49,27,28,21,12,81,46,11,30.20,30.07,29.96,10,10,10,14,3,23,0.00,0,,230
2013-3-16,66,47,26,30,23,18,82,52,17,29.96,29.89,29.81,10,10,10,10,2,22,0.00,1,,257
2013-3-17,60,44,27,28,9,-9,82,35,6,29.91,29.85,29.78,10,10,10,16,4,26,0.00,0,,274
2013-3-18,59,42,25,15,8,-1,60,33,9,30.05,29.98,29.89,10,10,10,16,4,29,0.00,0,,274
2013-3-19,57,44,27,21,17,11,69,40,16,30.14,30.04,29.94,10,10,10,9,2,,0.00,3,,52
2013-3-20,57,41,25,26,22,18,78,46,22,30.14,29.99,29.79,10,10,10,23,6,32,0.00,1,,231
2013-3-21,59,40,21,28,17,4,89,45,13,29.87,29.80,29.75,10,10,10,13,6,24,0.00,0,,293
2013-3-22,57,39,21,19,1,-32,71,31,4,29.83,29.76,29.70,10,10,10,18,5,30,0.00,2,,262
2013-3-23,42,30,16,3,-3,-12,54,27,10,30.15,29.99,29.78,10,10,10,16,6,29,0.00,0,,309
2013-3-24,50,30,10,6,0,-10,73,36,8,30.15,30.09,30.01,10,10,10,13,2,23,0.00,0,,318
2013-3-25,57,37,17,15,8,3,65,37,14,30.12,30.06,30.00,10,10,10,12,2,20,0.00,0,,285
2013-3-26,60,42,23,19,12,9,69,37,13,30.04,29.96,29.89,10,10,10,25,6,36,0.00,0,,231
2013-3-27,63,41,19,18,12,8,74,39,13,30.03,29.98,29.94,10,10,10,21,4,29,0.00,0,,209
2013-3-28,62,40,19,23,18,13,78,45,20,30.13,30.07,30.01,10,10,10,21,4,30,0.00,0,,219
2013-3-29,64,44,23,26,21,17,78,46,17,30.21,30.15,30.10,10,10,10,9,2,16,0.00,1,,282
2013-3-30,62,44,27,28,23,20,78,51,21,30.18,30.11,30.07,10,10,10,9,2,17,0.00,3,,210
2013-3-31,66,45,24,27,22,19,85,47,18,30.12,30.04,29.95,10,10,10,18,4,32,0.00,1,,218